Main page
Satellite images 10-day forecastsClimateMarine weather Cyclones Lightning AirportsFAQ Newsletter About
Weather : Europe Africa North America South America Asia Australia-Oceania Others
Languages Contact

Birmingham, England

Birmingham Airport

latitude: 52-27N, longitude: 001-44W, elevation: 99 m


METAR: EGBB 061220Z 21010G20KT 180V250 9999 SCT024 10/03 Q1030
TAF: EGBB 061057Z 0612/0712 21012KT 9999 SCT025 PROB30 TEMPO 0614/0706 22015G25KT

Time: 12:32 (12:32 UTC)

Current weather observation

The report was made 12 minutes ago, at 12:20 UTC
Wind 10 kt from the South/Southwest with gusts up to 20 kt, varying between South and West/Southwest
Temperature 10°C
Humidity 62%
Pressure 1030 hPa
Visibility 10 km or more
Scattered clouds at a height of 2400 ft

Change units

Forecast

The report was made 1 hour and 35 minutes ago, at 10:57 UTC
Forecast valid from 06 at 12 UTC to 07 at 12 UTC
Wind 12 kt from the South/Southwest
Visibility 10 km or more
Scattered clouds at a height of 2500 ft
Probability 30% :
Temporary
from 06 at 14 UTC to 07 at 06 UTC
Wind 15 kt from the Southwest with gusts up to 25 kt
The information on this site is subject to a disclaimer
Weather : Europe Africa North America South America Asia Australia-Oceania Others
Satellite images 10-day forecastsClimateMarine weather Cyclones Lightning AirportsFAQ Languages Contact Newsletter About